sensor_id;sensor_type;location;lat;lon;timestamp;P1;durP1;ratioP1;P2;durP2;ratioP2
27833;SDS011;15200;50.570;7.244;2022-08-19T00:01:44;11.60;;;10.43;;
27833;SDS011;15200;50.570;7.244;2022-08-19T00:04:12;15.15;;;10.08;;
27833;SDS011;15200;50.570;7.244;2022-08-19T00:06:41;12.65;;;11.12;;
27833;SDS011;15200;50.570;7.244;2022-08-19T00:09:09;11.50;;;10.35;;
27833;SDS011;15200;50.570;7.244;2022-08-19T00:11:37;11.65;;;10.55;;
27833;SDS011;15200;50.570;7.244;2022-08-19T00:14:05;12.00;;;10.88;;
27833;SDS011;15200;50.570;7.244;2022-08-19T00:16:33;12.35;;;9.85;;
27833;SDS011;15200;50.570;7.244;2022-08-19T00:19:01;11.85;;;10.20;;
27833;SDS011;15200;50.570;7.244;2022-08-19T00:21:28;11.35;;;10.23;;
27833;SDS011;15200;50.570;7.244;2022-08-19T00:23:56;12.25;;;9.90;;
27833;SDS011;15200;50.570;7.244;2022-08-19T00:26:26;11.12;;;9.98;;
27833;SDS011;15200;50.570;7.244;2022-08-19T00:28:54;11.53;;;10.32;;
27833;SDS011;15200;50.570;7.244;2022-08-19T00:31:21;13.13;;;10.00;;
27833;SDS011;15200;50.570;7.244;2022-08-19T00:33:49;13.78;;;10.05;;
27833;SDS011;15200;50.570;7.244;2022-08-19T00:36:16;10.58;;;9.58;;
27833;SDS011;15200;50.570;7.244;2022-08-19T00:38:44;12.65;;;11.00;;
27833;SDS011;15200;50.570;7.244;2022-08-19T00:41:18;11.20;;;10.00;;
27833;SDS011;15200;50.570;7.244;2022-08-19T00:43:41;14.10;;;9.80;;
27833;SDS011;15200;50.570;7.244;2022-08-19T00:46:08;11.83;;;10.45;;
27833;SDS011;15200;50.570;7.244;2022-08-19T00:48:36;13.88;;;10.05;;
27833;SDS011;15200;50.570;7.244;2022-08-19T00:51:04;10.68;;;9.40;;
27833;SDS011;15200;50.570;7.244;2022-08-19T00:53:32;14.18;;;9.60;;
27833;SDS011;15200;50.570;7.244;2022-08-19T00:56:00;12.18;;;9.55;;
27833;SDS011;15200;50.570;7.244;2022-08-19T00:58:29;9.53;;;8.68;;
27833;SDS011;15200;50.570;7.244;2022-08-19T01:00:57;11.35;;;9.48;;
27833;SDS011;15200;50.570;7.244;2022-08-19T01:03:24;11.00;;;9.93;;
27833;SDS011;15200;50.570;7.244;2022-08-19T01:05:51;12.25;;;10.58;;
27833;SDS011;15200;50.570;7.244;2022-08-19T01:08:20;10.05;;;9.08;;
27833;SDS011;15200;50.570;7.244;2022-08-19T01:10:52;10.90;;;9.75;;
27833;SDS011;15200;50.570;7.244;2022-08-19T01:13:21;10.70;;;9.60;;
27833;SDS011;15200;50.570;7.244;2022-08-19T01:15:55;10.90;;;9.70;;
27833;SDS011;15200;50.570;7.244;2022-08-19T01:18:22;10.45;;;9.45;;
27833;SDS011;15200;50.570;7.244;2022-08-19T01:20:50;13.50;;;10.25;;
27833;SDS011;15200;50.570;7.244;2022-08-19T01:23:18;10.72;;;9.45;;
27833;SDS011;15200;50.570;7.244;2022-08-19T01:25:48;9.80;;;8.78;;
27833;SDS011;15200;50.570;7.244;2022-08-19T01:28:21;10.10;;;9.10;;
27833;SDS011;15200;50.570;7.244;2022-08-19T01:30:45;10.85;;;9.48;;
27833;SDS011;15200;50.570;7.244;2022-08-19T01:33:13;10.08;;;9.08;;
27833;SDS011;15200;50.570;7.244;2022-08-19T01:35:41;11.80;;;10.60;;
27833;SDS011;15200;50.570;7.244;2022-08-19T01:38:10;11.55;;;9.40;;
27833;SDS011;15200;50.570;7.244;2022-08-19T01:40:38;9.73;;;8.83;;
27833;SDS011;15200;50.570;7.244;2022-08-19T01:43:06;11.38;;;9.85;;
27833;SDS011;15200;50.570;7.244;2022-08-19T01:45:34;12.25;;;10.85;;
27833;SDS011;15200;50.570;7.244;2022-08-19T01:48:03;11.93;;;10.78;;
27833;SDS011;15200;50.570;7.244;2022-08-19T01:50:31;11.90;;;10.53;;
27833;SDS011;15200;50.570;7.244;2022-08-19T01:52:59;11.68;;;10.48;;
27833;SDS011;15200;50.570;7.244;2022-08-19T01:55:27;13.93;;;11.63;;
27833;SDS011;15200;50.570;7.244;2022-08-19T01:57:55;12.85;;;11.12;;
27833;SDS011;15200;50.570;7.244;2022-08-19T02:00:26;12.55;;;10.32;;
27833;SDS011;15200;50.570;7.244;2022-08-19T02:02:54;13.50;;;12.10;;
27833;SDS011;15200;50.570;7.244;2022-08-19T02:05:21;14.03;;;11.97;;
27833;SDS011;15200;50.570;7.244;2022-08-19T02:07:49;20.97;;;12.13;;
27833;SDS011;15200;50.570;7.244;2022-08-19T02:10:18;14.05;;;11.97;;
27833;SDS011;15200;50.570;7.244;2022-08-19T02:12:45;14.13;;;11.48;;
27833;SDS011;15200;50.570;7.244;2022-08-19T02:15:12;12.78;;;11.57;;
27833;SDS011;15200;50.570;7.244;2022-08-19T02:17:40;13.13;;;11.78;;
27833;SDS011;15200;50.570;7.244;2022-08-19T02:20:07;12.05;;;10.82;;
27833;SDS011;15200;50.570;7.244;2022-08-19T02:22:35;13.32;;;11.93;;
27833;SDS011;15200;50.570;7.244;2022-08-19T02:25:02;13.18;;;11.80;;
27833;SDS011;15200;50.570;7.244;2022-08-19T02:27:31;13.32;;;11.93;;
27833;SDS011;15200;50.570;7.244;2022-08-19T02:29:59;14.33;;;11.65;;
27833;SDS011;15200;50.570;7.244;2022-08-19T02:32:27;13.50;;;11.70;;
27833;SDS011;15200;50.570;7.244;2022-08-19T02:34:56;13.83;;;12.35;;
27833;SDS011;15200;50.570;7.244;2022-08-19T02:37:25;12.85;;;11.55;;
27833;SDS011;15200;50.570;7.244;2022-08-19T02:40:10;12.50;;;11.18;;
27833;SDS011;15200;50.570;7.244;2022-08-19T02:42:37;13.35;;;12.05;;
27833;SDS011;15200;50.570;7.244;2022-08-19T02:45:07;14.28;;;11.90;;
27833;SDS011;15200;50.570;7.244;2022-08-19T02:47:34;15.60;;;11.73;;
27833;SDS011;15200;50.570;7.244;2022-08-19T02:50:02;13.08;;;11.08;;
27833;SDS011;15200;50.570;7.244;2022-08-19T02:52:31;14.83;;;11.22;;
27833;SDS011;15200;50.570;7.244;2022-08-19T02:54:59;13.75;;;11.28;;
27833;SDS011;15200;50.570;7.244;2022-08-19T02:57:27;12.73;;;11.35;;
27833;SDS011;15200;50.570;7.244;2022-08-19T02:59:54;12.55;;;11.20;;
27833;SDS011;15200;50.570;7.244;2022-08-19T03:02:21;12.45;;;11.25;;
27833;SDS011;15200;50.570;7.244;2022-08-19T03:04:49;13.50;;;10.70;;
27833;SDS011;15200;50.570;7.244;2022-08-19T03:07:17;14.68;;;10.75;;
27833;SDS011;15200;50.570;7.244;2022-08-19T03:09:44;13.88;;;11.53;;
27833;SDS011;15200;50.570;7.244;2022-08-19T03:12:12;13.43;;;11.20;;
27833;SDS011;15200;50.570;7.244;2022-08-19T03:14:39;13.65;;;11.40;;
27833;SDS011;15200;50.570;7.244;2022-08-19T03:17:07;12.35;;;9.98;;
27833;SDS011;15200;50.570;7.244;2022-08-19T03:19:34;12.37;;;11.03;;
27833;SDS011;15200;50.570;7.244;2022-08-19T03:22:01;13.50;;;10.53;;
27833;SDS011;15200;50.570;7.244;2022-08-19T03:24:31;12.35;;;10.65;;
27833;SDS011;15200;50.570;7.244;2022-08-19T03:26:58;12.53;;;10.70;;
27833;SDS011;15200;50.570;7.244;2022-08-19T03:29:27;11.80;;;10.72;;
27833;SDS011;15200;50.570;7.244;2022-08-19T03:31:54;13.65;;;11.50;;
27833;SDS011;15200;50.570;7.244;2022-08-19T03:34:23;13.22;;;10.88;;
27833;SDS011;15200;50.570;7.244;2022-08-19T03:36:53;12.73;;;10.50;;
27833;SDS011;15200;50.570;7.244;2022-08-19T03:39:21;11.88;;;10.78;;
27833;SDS011;15200;50.570;7.244;2022-08-19T03:41:49;12.55;;;11.25;;
27833;SDS011;15200;50.570;7.244;2022-08-19T03:44:19;12.03;;;10.78;;
27833;SDS011;15200;50.570;7.244;2022-08-19T03:46:47;11.45;;;10.25;;
27833;SDS011;15200;50.570;7.244;2022-08-19T03:49:15;12.47;;;11.18;;
27833;SDS011;15200;50.570;7.244;2022-08-19T03:51:43;12.30;;;11.00;;
27833;SDS011;15200;50.570;7.244;2022-08-19T03:54:11;13.75;;;12.20;;
27833;SDS011;15200;50.570;7.244;2022-08-19T03:56:40;12.63;;;11.33;;
27833;SDS011;15200;50.570;7.244;2022-08-19T03:59:08;15.60;;;11.63;;
27833;SDS011;15200;50.570;7.244;2022-08-19T04:01:36;12.63;;;11.43;;
27833;SDS011;15200;50.570;7.244;2022-08-19T04:04:04;12.75;;;11.48;;
27833;SDS011;15200;50.570;7.244;2022-08-19T04:06:33;15.68;;;12.28;;
27833;SDS011;15200;50.570;7.244;2022-08-19T04:09:02;13.58;;;12.18;;
27833;SDS011;15200;50.570;7.244;2022-08-19T04:11:31;16.97;;;12.47;;
27833;SDS011;15200;50.570;7.244;2022-08-19T04:13:58;15.38;;;12.63;;
27833;SDS011;15200;50.570;7.244;2022-08-19T04:16:26;14.13;;;12.03;;
27833;SDS011;15200;50.570;7.244;2022-08-19T04:18:59;13.78;;;12.07;;
27833;SDS011;15200;50.570;7.244;2022-08-19T04:21:26;13.13;;;11.73;;
27833;SDS011;15200;50.570;7.244;2022-08-19T04:23:54;13.80;;;12.28;;
27833;SDS011;15200;50.570;7.244;2022-08-19T04:26:27;16.23;;;12.53;;
27833;SDS011;15200;50.570;7.244;2022-08-19T04:28:54;14.25;;;12.85;;
27833;SDS011;15200;50.570;7.244;2022-08-19T04:31:23;14.40;;;11.75;;
27833;SDS011;15200;50.570;7.244;2022-08-19T04:33:54;17.37;;;12.82;;
27833;SDS011;15200;50.570;7.244;2022-08-19T04:36:24;17.77;;;12.10;;
27833;SDS011;15200;50.570;7.244;2022-08-19T04:38:55;20.70;;;12.65;;
27833;SDS011;15200;50.570;7.244;2022-08-19T04:41:23;31.60;;;12.55;;
27833;SDS011;15200;50.570;7.244;2022-08-19T04:44:09;19.32;;;12.28;;
27833;SDS011;15200;50.570;7.244;2022-08-19T04:46:36;19.98;;;12.15;;
27833;SDS011;15200;50.570;7.244;2022-08-19T04:49:04;19.25;;;12.23;;
27833;SDS011;15200;50.570;7.244;2022-08-19T04:51:32;18.32;;;12.70;;
27833;SDS011;15200;50.570;7.244;2022-08-19T04:54:03;14.35;;;12.00;;
27833;SDS011;15200;50.570;7.244;2022-08-19T04:56:31;14.98;;;12.13;;
27833;SDS011;15200;50.570;7.244;2022-08-19T04:58:59;13.18;;;11.45;;
27833;SDS011;15200;50.570;7.244;2022-08-19T05:01:28;13.93;;;11.83;;
27833;SDS011;15200;50.570;7.244;2022-08-19T05:03:56;16.93;;;11.57;;
27833;SDS011;15200;50.570;7.244;2022-08-19T05:06:23;15.25;;;11.75;;
27833;SDS011;15200;50.570;7.244;2022-08-19T05:08:51;12.45;;;11.03;;
27833;SDS011;15200;50.570;7.244;2022-08-19T05:11:20;17.62;;;11.48;;
27833;SDS011;15200;50.570;7.244;2022-08-19T05:13:48;15.83;;;11.60;;
27833;SDS011;15200;50.570;7.244;2022-08-19T05:16:16;14.03;;;11.18;;
27833;SDS011;15200;50.570;7.244;2022-08-19T05:18:44;13.75;;;11.45;;
27833;SDS011;15200;50.570;7.244;2022-08-19T05:21:30;14.45;;;10.63;;
27833;SDS011;15200;50.570;7.244;2022-08-19T05:24:16;13.62;;;11.12;;
27833;SDS011;15200;50.570;7.244;2022-08-19T05:26:45;14.23;;;11.33;;
27833;SDS011;15200;50.570;7.244;2022-08-19T05:29:16;16.37;;;11.10;;
27833;SDS011;15200;50.570;7.244;2022-08-19T05:31:44;12.98;;;11.20;;
27833;SDS011;15200;50.570;7.244;2022-08-19T05:34:12;12.78;;;11.48;;
27833;SDS011;15200;50.570;7.244;2022-08-19T05:36:40;13.43;;;12.00;;
27833;SDS011;15200;50.570;7.244;2022-08-19T05:39:14;14.50;;;12.45;;
27833;SDS011;15200;50.570;7.244;2022-08-19T05:41:49;14.33;;;12.05;;
27833;SDS011;15200;50.570;7.244;2022-08-19T05:44:16;19.73;;;13.05;;
27833;SDS011;15200;50.570;7.244;2022-08-19T05:46:44;14.18;;;12.07;;
27833;SDS011;15200;50.570;7.244;2022-08-19T05:49:13;14.10;;;12.03;;
27833;SDS011;15200;50.570;7.244;2022-08-19T05:51:42;13.65;;;11.78;;
27833;SDS011;15200;50.570;7.244;2022-08-19T05:54:09;12.37;;;11.18;;
27833;SDS011;15200;50.570;7.244;2022-08-19T05:56:39;13.13;;;10.82;;
27833;SDS011;15200;50.570;7.244;2022-08-19T05:59:07;12.60;;;11.30;;
27833;SDS011;15200;50.570;7.244;2022-08-19T06:01:38;17.98;;;11.93;;
27833;SDS011;15200;50.570;7.244;2022-08-19T06:04:05;13.65;;;12.20;;
27833;SDS011;15200;50.570;7.244;2022-08-19T06:06:33;16.17;;;11.40;;
27833;SDS011;15200;50.570;7.244;2022-08-19T06:09:04;13.35;;;11.93;;
27833;SDS011;15200;50.570;7.244;2022-08-19T06:11:35;11.60;;;10.50;;
27833;SDS011;15200;50.570;7.244;2022-08-19T06:14:04;12.35;;;11.15;;
27833;SDS011;15200;50.570;7.244;2022-08-19T06:16:38;13.62;;;12.13;;
27833;SDS011;15200;50.570;7.244;2022-08-19T06:19:05;12.95;;;11.57;;
27833;SDS011;15200;50.570;7.244;2022-08-19T06:21:35;12.00;;;10.90;;
27833;SDS011;15200;50.570;7.244;2022-08-19T06:24:04;12.70;;;11.43;;
27833;SDS011;15200;50.570;7.244;2022-08-19T06:26:33;14.78;;;11.08;;
27833;SDS011;15200;50.570;7.244;2022-08-19T06:29:02;14.35;;;11.75;;
27833;SDS011;15200;50.570;7.244;2022-08-19T06:31:29;13.70;;;12.23;;
27833;SDS011;15200;50.570;7.244;2022-08-19T06:33:58;16.10;;;12.20;;
27833;SDS011;15200;50.570;7.244;2022-08-19T06:36:27;14.28;;;12.37;;
27833;SDS011;15200;50.570;7.244;2022-08-19T06:38:56;18.02;;;13.58;;
27833;SDS011;15200;50.570;7.244;2022-08-19T06:41:24;13.93;;;12.53;;
27833;SDS011;15200;50.570;7.244;2022-08-19T06:43:53;15.83;;;13.45;;
27833;SDS011;15200;50.570;7.244;2022-08-19T06:46:21;16.70;;;15.00;;
27833;SDS011;15200;50.570;7.244;2022-08-19T06:48:48;20.88;;;17.55;;
27833;SDS011;15200;50.570;7.244;2022-08-19T06:51:16;18.70;;;16.70;;
27833;SDS011;15200;50.570;7.244;2022-08-19T06:53:50;16.95;;;15.28;;
27833;SDS011;15200;50.570;7.244;2022-08-19T06:56:17;16.70;;;14.93;;
27833;SDS011;15200;50.570;7.244;2022-08-19T06:58:45;19.95;;;16.80;;
27833;SDS011;15200;50.570;7.244;2022-08-19T07:01:12;20.90;;;18.55;;
27833;SDS011;15200;50.570;7.244;2022-08-19T07:03:40;19.73;;;16.97;;
27833;SDS011;15200;50.570;7.244;2022-08-19T07:06:11;25.97;;;19.48;;
27833;SDS011;15200;50.570;7.244;2022-08-19T07:08:41;21.90;;;18.98;;
27833;SDS011;15200;50.570;7.244;2022-08-19T07:11:09;24.55;;;18.85;;
27833;SDS011;15200;50.570;7.244;2022-08-19T07:13:37;22.45;;;20.10;;
27833;SDS011;15200;50.570;7.244;2022-08-19T07:16:10;27.73;;;20.68;;
27833;SDS011;15200;50.570;7.244;2022-08-19T07:18:33;26.30;;;21.10;;
27833;SDS011;15200;50.570;7.244;2022-08-19T07:21:12;25.95;;;20.27;;
27833;SDS011;15200;50.570;7.244;2022-08-19T07:23:36;24.55;;;20.80;;
27833;SDS011;15200;50.570;7.244;2022-08-19T07:26:08;23.62;;;19.87;;
27833;SDS011;15200;50.570;7.244;2022-08-19T07:28:35;26.40;;;21.23;;
27833;SDS011;15200;50.570;7.244;2022-08-19T07:31:05;22.85;;;18.55;;
27833;SDS011;15200;50.570;7.244;2022-08-19T07:33:33;26.05;;;20.37;;
27833;SDS011;15200;50.570;7.244;2022-08-19T07:36:03;26.57;;;21.50;;
27833;SDS011;15200;50.570;7.244;2022-08-19T07:38:31;24.95;;;21.60;;
27833;SDS011;15200;50.570;7.244;2022-08-19T07:40:59;24.57;;;20.27;;
27833;SDS011;15200;50.570;7.244;2022-08-19T07:43:27;23.45;;;18.67;;
27833;SDS011;15200;50.570;7.244;2022-08-19T07:45:54;21.42;;;17.57;;
27833;SDS011;15200;50.570;7.244;2022-08-19T07:48:25;21.12;;;17.60;;
27833;SDS011;15200;50.570;7.244;2022-08-19T07:50:53;19.98;;;16.65;;
27833;SDS011;15200;50.570;7.244;2022-08-19T07:53:21;20.02;;;17.48;;
27833;SDS011;15200;50.570;7.244;2022-08-19T07:55:48;19.27;;;15.90;;
27833;SDS011;15200;50.570;7.244;2022-08-19T07:58:17;18.42;;;15.38;;
27833;SDS011;15200;50.570;7.244;2022-08-19T08:00:45;22.45;;;14.68;;
27833;SDS011;15200;50.570;7.244;2022-08-19T08:03:14;20.68;;;16.15;;
27833;SDS011;15200;50.570;7.244;2022-08-19T08:05:41;17.75;;;14.58;;
27833;SDS011;15200;50.570;7.244;2022-08-19T08:08:27;16.87;;;13.38;;
27833;SDS011;15200;50.570;7.244;2022-08-19T08:11:08;15.85;;;12.15;;
27833;SDS011;15200;50.570;7.244;2022-08-19T08:13:36;16.48;;;14.30;;
27833;SDS011;15200;50.570;7.244;2022-08-19T08:16:04;18.45;;;12.58;;
27833;SDS011;15200;50.570;7.244;2022-08-19T08:18:33;13.22;;;11.93;;
27833;SDS011;15200;50.570;7.244;2022-08-19T08:21:02;12.40;;;11.20;;
27833;SDS011;15200;50.570;7.244;2022-08-19T08:23:29;14.68;;;11.75;;
27833;SDS011;15200;50.570;7.244;2022-08-19T08:25:57;13.95;;;11.28;;
27833;SDS011;15200;50.570;7.244;2022-08-19T08:28:25;17.32;;;11.85;;
27833;SDS011;15200;50.570;7.244;2022-08-19T08:30:55;13.25;;;11.63;;
27833;SDS011;15200;50.570;7.244;2022-08-19T08:33:24;11.33;;;10.13;;
27833;SDS011;15200;50.570;7.244;2022-08-19T08:35:51;10.03;;;8.55;;
27833;SDS011;15200;50.570;7.244;2022-08-19T08:38:19;18.77;;;10.80;;
27833;SDS011;15200;50.570;7.244;2022-08-19T08:40:50;17.73;;;11.90;;
27833;SDS011;15200;50.570;7.244;2022-08-19T08:43:27;14.28;;;11.50;;
27833;SDS011;15200;50.570;7.244;2022-08-19T08:45:57;16.67;;;11.20;;
27833;SDS011;15200;50.570;7.244;2022-08-19T08:48:22;15.95;;;11.80;;
27833;SDS011;15200;50.570;7.244;2022-08-19T08:50:49;15.98;;;12.15;;
27833;SDS011;15200;50.570;7.244;2022-08-19T08:53:19;16.45;;;10.85;;
27833;SDS011;15200;50.570;7.244;2022-08-19T08:55:47;15.15;;;12.30;;
27833;SDS011;15200;50.570;7.244;2022-08-19T08:58:24;13.90;;;11.63;;
27833;SDS011;15200;50.570;7.244;2022-08-19T09:00:49;14.47;;;10.65;;
27833;SDS011;15200;50.570;7.244;2022-08-19T09:03:22;12.10;;;9.80;;
27833;SDS011;15200;50.570;7.244;2022-08-19T09:11:10;17.82;;;11.33;;
27833;SDS011;15200;50.570;7.244;2022-08-19T09:13:41;13.18;;;10.55;;
27833;SDS011;15200;50.570;7.244;2022-08-19T09:16:07;11.50;;;10.30;;
27833;SDS011;15200;50.570;7.244;2022-08-19T09:18:46;11.20;;;10.10;;
27833;SDS011;15200;50.570;7.244;2022-08-19T09:21:11;10.28;;;9.23;;
27833;SDS011;15200;50.570;7.244;2022-08-19T09:23:40;12.15;;;10.58;;
27833;SDS011;15200;50.570;7.244;2022-08-19T09:26:10;13.28;;;11.40;;
27833;SDS011;15200;50.570;7.244;2022-08-19T09:28:39;13.20;;;11.12;;
27833;SDS011;15200;50.570;7.244;2022-08-19T09:31:09;12.18;;;9.70;;
27833;SDS011;15200;50.570;7.244;2022-08-19T09:33:37;11.93;;;10.23;;
27833;SDS011;15200;50.570;7.244;2022-08-19T09:36:05;11.20;;;8.28;;
27833;SDS011;15200;50.570;7.244;2022-08-19T09:38:33;12.15;;;9.23;;
27833;SDS011;15200;50.570;7.244;2022-08-19T09:41:04;9.30;;;8.40;;
27833;SDS011;15200;50.570;7.244;2022-08-19T09:43:32;14.20;;;11.33;;
27833;SDS011;15200;50.570;7.244;2022-08-19T09:46:02;18.02;;;10.28;;
27833;SDS011;15200;50.570;7.244;2022-08-19T09:48:32;13.35;;;9.85;;
27833;SDS011;15200;50.570;7.244;2022-08-19T09:51:06;9.63;;;8.18;;
27833;SDS011;15200;50.570;7.244;2022-08-19T09:53:34;10.28;;;9.03;;
27833;SDS011;15200;50.570;7.244;2022-08-19T09:56:02;11.45;;;9.45;;
27833;SDS011;15200;50.570;7.244;2022-08-19T09:58:30;11.88;;;7.83;;
27833;SDS011;15200;50.570;7.244;2022-08-19T10:00:58;12.53;;;10.08;;
27833;SDS011;15200;50.570;7.244;2022-08-19T10:03:27;12.93;;;9.98;;
27833;SDS011;15200;50.570;7.244;2022-08-19T10:05:55;11.12;;;9.90;;
27833;SDS011;15200;50.570;7.244;2022-08-19T10:08:24;8.88;;;7.67;;
27833;SDS011;15200;50.570;7.244;2022-08-19T10:10:53;13.90;;;10.65;;
27833;SDS011;15200;50.570;7.244;2022-08-19T10:13:21;13.75;;;10.00;;
27833;SDS011;15200;50.570;7.244;2022-08-19T10:15:49;9.58;;;7.50;;
27833;SDS011;15200;50.570;7.244;2022-08-19T10:18:18;8.98;;;8.08;;
27833;SDS011;15200;50.570;7.244;2022-08-19T10:20:46;11.85;;;9.65;;
27833;SDS011;15200;50.570;7.244;2022-08-19T10:23:17;14.90;;;11.12;;
27833;SDS011;15200;50.570;7.244;2022-08-19T10:25:44;11.90;;;9.83;;
27833;SDS011;15200;50.570;7.244;2022-08-19T10:28:12;16.05;;;10.82;;
27833;SDS011;15200;50.570;7.244;2022-08-19T10:30:39;11.25;;;10.13;;
27833;SDS011;15200;50.570;7.244;2022-08-19T10:33:08;13.08;;;11.08;;
27833;SDS011;15200;50.570;7.244;2022-08-19T10:35:35;12.10;;;10.65;;
27833;SDS011;15200;50.570;7.244;2022-08-19T10:38:02;15.25;;;13.28;;
27833;SDS011;15200;50.570;7.244;2022-08-19T10:40:30;12.65;;;9.03;;
27833;SDS011;15200;50.570;7.244;2022-08-19T10:42:57;14.80;;;11.73;;
27833;SDS011;15200;50.570;7.244;2022-08-19T10:45:24;12.63;;;11.28;;
27833;SDS011;15200;50.570;7.244;2022-08-19T10:47:52;12.68;;;11.35;;
27833;SDS011;15200;50.570;7.244;2022-08-19T10:50:20;17.73;;;13.95;;
27833;SDS011;15200;50.570;7.244;2022-08-19T10:53:06;14.58;;;12.95;;
27833;SDS011;15200;50.570;7.244;2022-08-19T10:55:37;14.58;;;11.80;;
27833;SDS011;15200;50.570;7.244;2022-08-19T10:58:22;12.10;;;10.23;;
27833;SDS011;15200;50.570;7.244;2022-08-19T11:00:53;13.60;;;11.55;;
27833;SDS011;15200;50.570;7.244;2022-08-19T11:03:21;13.70;;;11.40;;
27833;SDS011;15200;50.570;7.244;2022-08-19T11:06:01;10.88;;;9.78;;
27833;SDS011;15200;50.570;7.244;2022-08-19T11:08:29;13.72;;;12.00;;
27833;SDS011;15200;50.570;7.244;2022-08-19T11:10:58;13.25;;;11.18;;
27833;SDS011;15200;50.570;7.244;2022-08-19T11:13:28;16.12;;;13.28;;
27833;SDS011;15200;50.570;7.244;2022-08-19T11:16:07;15.10;;;12.95;;
27833;SDS011;15200;50.570;7.244;2022-08-19T11:18:30;13.15;;;11.85;;
27833;SDS011;15200;50.570;7.244;2022-08-19T11:21:07;9.88;;;8.88;;
27833;SDS011;15200;50.570;7.244;2022-08-19T11:23:26;11.88;;;9.75;;
27833;SDS011;15200;50.570;7.244;2022-08-19T11:25:53;11.10;;;9.93;;
27833;SDS011;15200;50.570;7.244;2022-08-19T11:28:22;8.35;;;7.65;;
27833;SDS011;15200;50.570;7.244;2022-08-19T11:30:49;9.05;;;7.47;;
27833;SDS011;15200;50.570;7.244;2022-08-19T11:33:17;9.33;;;8.13;;
27833;SDS011;15200;50.570;7.244;2022-08-19T11:35:45;8.55;;;7.65;;
27833;SDS011;15200;50.570;7.244;2022-08-19T11:38:12;8.50;;;7.22;;
27833;SDS011;15200;50.570;7.244;2022-08-19T11:40:40;11.45;;;8.75;;
27833;SDS011;15200;50.570;7.244;2022-08-19T11:43:08;8.35;;;7.55;;
27833;SDS011;15200;50.570;7.244;2022-08-19T11:45:36;12.73;;;8.28;;
27833;SDS011;15200;50.570;7.244;2022-08-19T11:48:03;9.88;;;8.98;;
27833;SDS011;15200;50.570;7.244;2022-08-19T11:50:30;11.93;;;7.97;;
27833;SDS011;15200;50.570;7.244;2022-08-19T11:52:58;8.20;;;7.33;;
27833;SDS011;15200;50.570;7.244;2022-08-19T11:55:26;9.70;;;7.05;;
27833;SDS011;15200;50.570;7.244;2022-08-19T11:57:53;10.82;;;7.53;;
27833;SDS011;15200;50.570;7.244;2022-08-19T12:00:21;13.93;;;9.03;;
27833;SDS011;15200;50.570;7.244;2022-08-19T12:02:49;13.05;;;9.20;;
27833;SDS011;15200;50.570;7.244;2022-08-19T12:05:16;9.58;;;6.60;;
27833;SDS011;15200;50.570;7.244;2022-08-19T12:07:43;9.68;;;7.17;;
27833;SDS011;15200;50.570;7.244;2022-08-19T12:10:12;8.40;;;6.47;;
27833;SDS011;15200;50.570;7.244;2022-08-19T12:12:39;6.78;;;5.85;;
27833;SDS011;15200;50.570;7.244;2022-08-19T12:15:08;6.87;;;5.78;;
27833;SDS011;15200;50.570;7.244;2022-08-19T12:17:38;6.15;;;5.53;;
27833;SDS011;15200;50.570;7.244;2022-08-19T12:20:06;14.00;;;6.55;;
27833;SDS011;15200;50.570;7.244;2022-08-19T12:22:35;5.85;;;5.35;;
27833;SDS011;15200;50.570;7.244;2022-08-19T12:25:03;8.73;;;5.05;;
27833;SDS011;15200;50.570;7.244;2022-08-19T12:27:31;5.30;;;4.80;;
27833;SDS011;15200;50.570;7.244;2022-08-19T12:29:58;8.33;;;5.67;;
27833;SDS011;15200;50.570;7.244;2022-08-19T12:32:27;8.13;;;5.47;;
27833;SDS011;15200;50.570;7.244;2022-08-19T12:34:55;9.08;;;5.35;;
27833;SDS011;15200;50.570;7.244;2022-08-19T12:37:22;5.22;;;4.83;;
27833;SDS011;15200;50.570;7.244;2022-08-19T12:39:49;6.08;;;4.58;;
27833;SDS011;15200;50.570;7.244;2022-08-19T12:42:17;6.03;;;5.05;;
27833;SDS011;15200;50.570;7.244;2022-08-19T12:44:44;9.78;;;5.53;;
27833;SDS011;15200;50.570;7.244;2022-08-19T12:47:12;6.28;;;5.67;;
27833;SDS011;15200;50.570;7.244;2022-08-19T12:49:40;6.35;;;4.97;;
27833;SDS011;15200;50.570;7.244;2022-08-19T12:52:08;7.97;;;6.55;;
27833;SDS011;15200;50.570;7.244;2022-08-19T12:54:36;8.18;;;5.78;;
27833;SDS011;15200;50.570;7.244;2022-08-19T12:57:07;6.58;;;5.78;;
27833;SDS011;15200;50.570;7.244;2022-08-19T12:59:35;6.80;;;5.30;;
27833;SDS011;15200;50.570;7.244;2022-08-19T13:02:06;9.23;;;6.92;;
27833;SDS011;15200;50.570;7.244;2022-08-19T13:04:34;6.75;;;6.10;;
27833;SDS011;15200;50.570;7.244;2022-08-19T13:07:04;6.30;;;5.70;;
27833;SDS011;15200;50.570;7.244;2022-08-19T13:09:31;6.60;;;5.87;;
27833;SDS011;15200;50.570;7.244;2022-08-19T13:11:58;7.22;;;5.80;;
27833;SDS011;15200;50.570;7.244;2022-08-19T13:14:27;8.03;;;6.90;;
27833;SDS011;15200;50.570;7.244;2022-08-19T13:16:56;7.50;;;6.90;;
27833;SDS011;15200;50.570;7.244;2022-08-19T13:19:23;8.33;;;6.65;;
27833;SDS011;15200;50.570;7.244;2022-08-19T13:21:51;8.60;;;7.15;;
27833;SDS011;15200;50.570;7.244;2022-08-19T13:24:19;9.38;;;6.20;;
27833;SDS011;15200;50.570;7.244;2022-08-19T13:26:47;7.00;;;6.15;;
27833;SDS011;15200;50.570;7.244;2022-08-19T13:29:14;7.28;;;6.58;;
27833;SDS011;15200;50.570;7.244;2022-08-19T13:31:59;8.88;;;7.45;;
27833;SDS011;15200;50.570;7.244;2022-08-19T13:34:45;8.00;;;7.20;;
27833;SDS011;15200;50.570;7.244;2022-08-19T13:37:13;8.03;;;7.22;;
27833;SDS011;15200;50.570;7.244;2022-08-19T13:39:40;8.10;;;7.30;;
27833;SDS011;15200;50.570;7.244;2022-08-19T13:42:07;9.35;;;8.05;;
27833;SDS011;15200;50.570;7.244;2022-08-19T13:44:36;8.58;;;7.22;;
27833;SDS011;15200;50.570;7.244;2022-08-19T13:47:04;8.95;;;7.85;;
27833;SDS011;15200;50.570;7.244;2022-08-19T13:49:33;8.33;;;7.47;;
27833;SDS011;15200;50.570;7.244;2022-08-19T13:52:03;9.30;;;7.97;;
27833;SDS011;15200;50.570;7.244;2022-08-19T13:54:30;8.95;;;8.05;;
27833;SDS011;15200;50.570;7.244;2022-08-19T13:56:58;9.33;;;7.95;;
27833;SDS011;15200;50.570;7.244;2022-08-19T13:59:25;10.28;;;7.97;;
27833;SDS011;15200;50.570;7.244;2022-08-19T14:01:57;11.78;;;7.58;;
27833;SDS011;15200;50.570;7.244;2022-08-19T14:04:22;8.95;;;7.55;;
27833;SDS011;15200;50.570;7.244;2022-08-19T14:06:49;8.10;;;6.78;;
27833;SDS011;15200;50.570;7.244;2022-08-19T14:09:16;8.60;;;7.65;;
27833;SDS011;15200;50.570;7.244;2022-08-19T14:11:43;8.65;;;7.33;;
27833;SDS011;15200;50.570;7.244;2022-08-19T14:14:12;10.38;;;7.05;;
27833;SDS011;15200;50.570;7.244;2022-08-19T14:16:40;6.83;;;5.83;;
27833;SDS011;15200;50.570;7.244;2022-08-19T14:19:07;6.62;;;6.00;;
27833;SDS011;15200;50.570;7.244;2022-08-19T14:21:34;7.78;;;6.03;;
27833;SDS011;15200;50.570;7.244;2022-08-19T14:24:02;6.70;;;5.97;;
27833;SDS011;15200;50.570;7.244;2022-08-19T14:26:29;7.60;;;5.17;;
27833;SDS011;15200;50.570;7.244;2022-08-19T14:28:57;5.45;;;4.95;;
27833;SDS011;15200;50.570;7.244;2022-08-19T14:31:24;6.97;;;5.55;;
27833;SDS011;15200;50.570;7.244;2022-08-19T14:33:52;6.42;;;5.03;;
27833;SDS011;15200;50.570;7.244;2022-08-19T14:36:19;5.28;;;4.78;;
27833;SDS011;15200;50.570;7.244;2022-08-19T14:38:47;8.35;;;5.00;;
27833;SDS011;15200;50.570;7.244;2022-08-19T14:41:17;6.05;;;4.45;;
27833;SDS011;15200;50.570;7.244;2022-08-19T14:43:48;6.85;;;4.72;;